Time;durP1;ratioP1;P1;durP2;ratioP2;P2;SDS_P1;SDS_P2;PMS_P1;PMS_P2;Temp;Humidity;BMP_temperature;BMP_pressure;BME280_temperature;BME280_humidity;BME280_pressure;Samples;Min_cycle;Max_cycle;Signal;HPM_P1;HPM_P2
2024/04/14 00:08:25;;;;;;;4.82;2.92;;;8.30;99.90;;;;;;9268470;22;20020;-84
2024/04/14 00:17:56;;;;;;;5.07;3.10;;;8.50;99.90;;;;;;8614812;27;20014;-83
2024/04/14 00:27:13;;;;;;;4.88;3.50;;;8.60;99.90;;;;;;8527049;27;20044;-83
2024/04/14 00:31:14;;;;;;;8.50;3.35;;;8.60;99.90;;;;;;8603176;27;20003;-83
2024/04/14 00:35:25;;;;;;;4.88;3.53;;;8.50;99.90;;;;;;8606812;27;20007;-83
2024/04/14 00:45:38;;;;;;;;;;;;;;;;;;;;;
2024/04/14 00:49:45;;;;;;;5.45;3.05;;;8.40;99.90;;;;;;8407323;28;20018;-83
2024/04/14 00:54:57;;;;;;;5.10;3.20;;;8.50;99.90;;;;;;8427402;28;20026;-84
2024/04/14 01:21:09;;;;;;;7.65;3.15;;;8.10;99.90;;;;;;8564827;27;20005;-82
2024/04/14 01:25:11;;;;;;;6.38;2.95;;;8.10;99.90;;;;;;8543615;27;20023;-83
2024/04/14 01:29:12;;;;;;;5.78;3.22;;;8.10;99.90;;;;;;8544751;27;20011;-83
2024/04/14 01:33:12;;;;;;;6.60;3.15;;;8.20;99.90;;;;;;8526732;27;20023;-82
2024/04/14 01:37:13;;;;;;;4.57;3.20;;;8.30;99.90;;;;;;8534780;27;20000;-83
2024/04/14 02:13:48;;;;;;;7.50;2.90;;;8.20;99.90;;;;;;8568197;27;20436;-84
2024/04/14 02:31:53;;;;;;;;;;;7.70;99.90;;;;;;9404099;22;20008;-84
2024/04/14 03:08:08;;;;;;;4.78;3.03;;;7.50;99.90;;;;;;8151924;29;20021;-85
2024/04/14 03:13:21;;;;;;;;;;;;;;;;;;;;;
2024/04/14 03:33:46;;;;;;;;;;;;;;;;;;;;;
2024/04/14 04:32:56;;;;;;;2.83;2.03;;;6.90;99.90;;;;;;8579086;27;20003;-83
2024/04/14 04:42:45;;;;;;;3.83;2.22;;;6.90;99.90;;;;;;8286936;28;20399;-84
2024/04/14 04:47:52;;;;;;;;;;;;;;;;;;;;;
2024/04/14 04:58:29;;;;;;;;;;;;;;;;;;;;;
2024/04/14 05:08:26;;;;;;;2.78;1.90;;;7.30;99.90;;;;;;8178965;28;20580;-82
2024/04/14 05:22:21;;;;;;;4.10;2.33;;;7.70;99.90;;;;;;8462390;27;20003;-83
2024/04/14 05:27:08;;;;;;;3.97;2.38;;;8.00;99.90;;;;;;8568657;27;20056;-82
2024/04/14 05:31:27;;;;;;;;;;;;;;;;;;;;;
2024/04/14 05:51:14;;;;;;;6.90;2.50;;;9.80;99.90;;;;;;8169785;29;20016;-83
2024/04/14 05:55:52;;;;;;;;;;;;;;;;;;;;;
2024/04/14 06:05:15;;;;;;;;;;;;;;;;;;;;;
2024/04/14 06:19:14;;;;;;;3.35;1.90;;;14.40;99.90;;;;;;8378287;28;20585;-85
2024/04/14 06:24:24;;;;;;;;;;;;;;;;;;;;;
2024/04/14 06:28:25;;;;;;;3.63;2.08;;;15.00;99.90;;;;;;8255301;28;20003;-86
2024/04/14 06:32:29;;;;;;;2.97;1.90;;;15.80;99.90;;;;;;8540559;22;20027;-84
2024/04/14 06:37:20;;;;;;;2.40;1.90;;;15.90;99.90;;;;;;8479816;27;20048;-84
2024/04/14 06:46:00;;;;;;;2.70;1.88;;;16.50;99.90;;;;;;8496612;27;20664;-83
2024/04/14 06:55:15;;;;;;;2.22;1.50;;;17.40;99.90;;;;;;8455891;27;20018;-83
2024/04/14 06:59:19;;;;;;;2.72;1.60;;;18.00;99.90;;;;;;8433375;27;20085;-85
2024/04/14 07:03:53;;;;;;;2.33;1.67;;;18.50;99.90;;;;;;8428138;28;20407;-83
2024/04/14 07:13:02;;;;;;;1.95;1.70;;;19.60;99.90;;;;;;8671751;22;20222;-83
2024/04/14 07:17:03;;;;;;;3.83;1.65;;;20.30;99.90;;;;;;8652937;27;20003;-82
2024/04/14 07:21:03;;;;;;;1.98;1.55;;;20.80;99.90;;;;;;8629645;27;20019;-83
2024/04/14 07:25:04;;;;;;;2.40;1.35;;;21.20;99.90;;;;;;8570319;27;20004;-83
2024/04/14 07:29:05;;;;;;;2.30;1.50;;;21.50;99.90;;;;;;8599944;27;20346;-81
2024/04/14 07:33:06;;;;;;;3.00;1.17;;;22.10;99.90;;;;;;8614873;27;20035;-83
2024/04/14 07:37:07;;;;;;;1.38;1.23;;;22.20;99.90;;;;;;8617003;27;20086;-82
2024/04/14 07:41:07;;;;;;;2.08;1.50;;;23.00;99.90;;;;;;8566170;27;20007;-80
2024/04/14 07:45:10;;;;;;;2.72;1.30;;;23.40;99.90;;;;;;8584204;27;20479;-82
2024/04/14 07:49:10;;;;;;;1.83;1.15;;;23.70;99.90;;;;;;8569277;27;20008;-82
2024/04/14 07:53:11;;;;;;;1.95;1.30;;;24.10;99.90;;;;;;8591104;27;20055;-83
2024/04/14 07:57:12;;;;;;;2.28;1.40;;;24.10;99.90;;;;;;8576337;27;20000;-82
2024/04/14 08:01:12;;;;;;;1.50;1.27;;;23.90;99.90;;;;;;8604511;27;20389;-82
2024/04/14 08:05:13;;;;;;;1.33;1.13;;;24.10;99.90;;;;;;8604199;27;20343;-82
2024/04/14 08:09:13;;;;;;;1.73;1.20;;;23.80;99.90;;;;;;8604197;27;20016;-81
2024/04/14 08:13:14;;;;;;;4.50;1.13;;;24.10;99.90;;;;;;8578577;27;20007;-82
2024/04/14 08:17:14;;;;;;;1.75;1.35;;;24.60;99.90;;;;;;8602957;27;20470;-82
2024/04/14 08:21:15;;;;;;;1.27;1.05;;;24.80;99.90;;;;;;8614656;27;20014;-82
2024/04/14 08:25:16;;;;;;;2.50;1.52;;;24.70;99.00;;;;;;8607598;27;20035;-81
2024/04/14 08:29:16;;;;;;;1.77;1.20;;;24.40;98.80;;;;;;8601511;27;20151;-82
2024/04/14 08:33:17;;;;;;;1.70;1.05;;;24.50;99.90;;;;;;8580717;27;20006;-82
2024/04/14 08:37:17;;;;;;;1.52;1.20;;;24.30;99.90;;;;;;8682800;22;20031;-86
2024/04/14 08:41:18;;;;;;;1.30;1.10;;;24.50;98.40;;;;;;8602488;27;20011;-86
2024/04/14 08:45:23;;;;;;;1.38;1.17;;;24.60;99.50;;;;;;8585642;27;20005;-85
2024/04/14 08:49:25;;;;;;;2.25;1.35;;;24.20;99.00;;;;;;8561990;27;20118;-86
2024/04/14 08:53:27;;;;;;;1.80;1.30;;;24.60;99.30;;;;;;8522720;27;20009;-87
2024/04/14 08:57:29;;;;;;;2.30;1.27;;;24.60;99.10;;;;;;8562245;27;20085;-86
2024/04/14 10:14:06;;;;;;;2.75;2.10;;;25.20;97.10;;;;;;8387004;28;20048;-90
2024/04/14 10:18:49;;;;;;;1.45;1.17;;;25.30;96.70;;;;;;8484001;27;20009;-90
2024/04/14 10:39:14;;;;;;;1.15;1.00;;;27.80;95.40;;;;;;8280541;28;20470;-89
2024/04/14 10:49:02;;;;;;;1.75;0.98;;;27.70;92.00;;;;;;8326987;28;20008;-90
2024/04/14 11:04:05;;;;;;;0.98;0.88;;;28.50;85.40;;;;;;8282474;28;20077;-89
2024/04/14 11:14:18;;;;;;;;;;;;;;;;;;;;;
2024/04/14 11:23:31;;;;;;;1.73;1.10;;;29.50;85.90;;;;;;8880429;22;20021;-90
2024/04/14 11:27:41;;;;;;;1.30;1.10;;;30.00;77.80;;;;;;8611663;27;20005;-88
2024/04/14 11:42:13;;;;;;;1.92;1.23;;;30.20;76.40;;;;;;8578578;27;20036;-90
2024/04/14 11:47:09;;;;;;;1.33;1.20;;;30.80;75.50;;;;;;8453776;27;20010;-90
2024/04/14 11:52:10;;;;;;;1.60;1.30;;;30.10;74.20;;;;;;8558220;27;20425;-90
2024/04/14 12:05:51;;;;;;;1.50;1.20;;;30.70;78.20;;;;;;8461948;28;20064;-88
2024/04/14 12:09:51;;;;;;;2.40;1.20;;;31.40;71.40;;;;;;8422430;27;20005;-87
2024/04/14 12:13:52;;;;;;;2.55;1.40;;;31.30;71.30;;;;;;8555429;27;20007;-85
2024/04/14 12:17:52;;;;;;;1.90;1.35;;;31.30;71.40;;;;;;8595942;27;20372;-87
2024/04/14 12:21:53;;;;;;;1.65;1.40;;;31.00;68.20;;;;;;8580344;27;20018;-85
2024/04/14 12:25:54;;;;;;;2.13;1.17;;;31.60;68.90;;;;;;8606875;27;20012;-87
2024/04/14 12:29:54;;;;;;;3.05;1.52;;;31.50;65.90;;;;;;8582381;27;20019;-87
2024/04/14 12:33:55;;;;;;;1.77;1.25;;;31.60;68.70;;;;;;8571883;27;20026;-86
2024/04/14 12:37:55;;;;;;;1.20;1.02;;;32.70;66.20;;;;;;8579524;27;20084;-84
2024/04/14 12:41:56;;;;;;;2.20;1.30;;;33.20;64.90;;;;;;8579673;27;20079;-87
2024/04/14 12:45:57;;;;;;;1.65;1.15;;;33.20;65.00;;;;;;8579705;27;20000;-88
2024/04/14 12:49:57;;;;;;;2.35;1.33;;;34.70;64.50;;;;;;8612280;27;20005;-87
2024/04/14 12:53:58;;;;;;;1.42;1.10;;;34.40;63.90;;;;;;8582180;27;20004;-88
2024/04/14 12:57:59;;;;;;;1.83;1.30;;;34.30;60.10;;;;;;8571700;27;20080;-86
2024/04/14 13:01:59;;;;;;;1.42;1.10;;;34.40;59.90;;;;;;8561458;27;20007;-86
2024/04/14 13:06:00;;;;;;;1.80;1.30;;;35.10;60.40;;;;;;8603100;27;20656;-86
2024/04/14 13:10:00;;;;;;;1.65;1.30;;;34.50;57.40;;;;;;8615283;27;20021;-86
2024/04/14 13:14:01;;;;;;;2.80;1.30;;;33.80;57.30;;;;;;8621433;27;20003;-88
2024/04/14 13:18:02;;;;;;;1.63;1.20;;;34.10;57.90;;;;;;8581801;27;20454;-86
2024/04/14 13:22:02;;;;;;;1.77;1.30;;;35.30;58.90;;;;;;8556477;27;20705;-85
2024/04/14 13:26:03;;;;;;;1.23;1.13;;;34.50;59.20;;;;;;8562461;27;20014;-87
2024/04/14 13:30:04;;;;;;;1.55;1.15;;;34.80;57.50;;;;;;8592499;27;20177;-88
2024/04/14 13:34:05;;;;;;;1.38;0.98;;;33.90;57.80;;;;;;8589257;27;20004;-87
2024/04/14 13:38:05;;;;;;;1.90;1.35;;;33.70;64.30;;;;;;8571770;27;20004;-86
2024/04/14 13:42:07;;;;;;;1.50;1.20;;;33.80;55.70;;;;;;8562482;27;20020;-86
2024/04/14 13:46:07;;;;;;;2.50;1.33;;;34.20;56.60;;;;;;8585466;27;20346;-85
2024/04/14 13:50:08;;;;;;;2.03;1.35;;;34.40;55.60;;;;;;8577679;27;20012;-84
2024/04/14 13:54:08;;;;;;;2.17;1.35;;;34.50;58.20;;;;;;8557991;27;20362;-85
2024/04/14 13:58:09;;;;;;;1.63;1.42;;;35.30;56.10;;;;;;8572407;27;20001;-85
2024/04/14 14:02:09;;;;;;;1.88;1.33;;;35.60;55.40;;;;;;8591842;27;20086;-83
2024/04/14 14:06:10;;;;;;;2.83;1.30;;;36.50;53.10;;;;;;8603944;27;20079;-85
2024/04/14 14:10:10;;;;;;;2.55;1.48;;;35.40;52.40;;;;;;8574646;27;20009;-86
2024/04/14 14:14:11;;;;;;;1.52;1.30;;;34.80;52.10;;;;;;8571470;27;20005;-86
2024/04/14 14:18:11;;;;;;;2.63;1.73;;;35.00;53.20;;;;;;8562764;27;20004;-84
2024/04/14 14:22:12;;;;;;;1.20;1.10;;;35.50;51.90;;;;;;8589198;27;20008;-86
2024/04/14 14:26:14;;;;;;;1.48;1.23;;;35.70;51.50;;;;;;8576423;27;20019;-83
2024/04/14 14:30:14;;;;;;;1.40;1.20;;;36.10;50.70;;;;;;8577908;27;20004;-84
2024/04/14 14:38:34;;;;;;;1.52;1.40;;;36.30;52.80;;;;;;8614526;27;20404;-84
2024/04/14 14:42:35;;;;;;;1.77;1.45;;;35.80;50.20;;;;;;8602239;27;20047;-86
2024/04/14 14:46:35;;;;;;;2.47;1.10;;;34.80;52.00;;;;;;8573224;27;20026;-85
2024/04/14 14:50:36;;;;;;;1.67;1.13;;;34.70;53.80;;;;;;8575654;27;20003;-84
2024/04/14 14:54:36;;;;;;;1.50;1.10;;;35.00;51.20;;;;;;8604342;27;20057;-87
2024/04/14 14:58:40;;;;;;;2.53;1.42;;;34.50;52.30;;;;;;8577751;27;20028;-84
2024/04/14 15:02:40;;;;;;;1.50;1.10;;;34.10;51.60;;;;;;8587157;27;19999;-86
2024/04/14 15:06:41;;;;;;;1.48;1.05;;;34.50;51.10;;;;;;8605001;27;20010;-87
2024/04/14 15:10:46;;;;;;;1.95;1.30;;;33.10;52.10;;;;;;8573326;27;20011;-86
2024/04/14 15:14:47;;;;;;;2.17;1.20;;;32.00;56.60;;;;;;8566037;27;20004;-88
2024/04/14 15:18:47;;;;;;;3.35;1.30;;;32.20;53.70;;;;;;8583811;27;20015;-86
2024/04/14 15:22:48;;;;;;;1.83;1.20;;;32.20;53.70;;;;;;8571967;27;20015;-86
2024/04/14 15:26:48;;;;;;;1.40;1.20;;;32.20;54.50;;;;;;8563221;27;20397;-84
2024/04/14 15:30:49;;;;;;;2.15;1.50;;;32.40;53.10;;;;;;8581663;27;20540;-86
2024/04/14 15:34:49;;;;;;;2.08;1.30;;;31.80;53.90;;;;;;8584868;27;20015;-85
2024/04/14 15:38:50;;;;;;;1.83;1.33;;;31.50;55.00;;;;;;8569714;27;20005;-84
2024/04/14 15:42:50;;;;;;;1.30;1.20;;;31.40;56.70;;;;;;8598420;27;20709;-84
2024/04/14 15:46:51;;;;;;;1.73;1.30;;;31.40;56.70;;;;;;8602658;27;20016;-87
2024/04/14 15:51:02;;;;;;;1.30;1.17;;;30.70;56.20;;;;;;8609900;27;20004;-87
2024/04/14 15:55:03;;;;;;;;;;;29.60;56.40;;;;;;8607421;27;20367;-86
2024/04/14 15:59:03;;;;;;;1.65;1.00;;;29.00;57.50;;;;;;8608507;27;19946;-86
2024/04/14 16:03:04;;;;;;;1.73;1.20;;;27.70;59.50;;;;;;8581902;27;20769;-86
2024/04/14 16:07:04;;;;;;;1.60;1.50;;;26.70;62.20;;;;;;8602772;27;20483;-85
2024/04/14 16:11:06;;;;;;;2.10;1.25;;;26.00;64.30;;;;;;8579565;27;20018;-85
2024/04/14 16:15:07;;;;;;;1.90;1.42;;;25.70;64.40;;;;;;8576089;27;20480;-85
2024/04/14 16:19:07;;;;;;;2.30;1.27;;;25.30;65.20;;;;;;8609064;27;20011;-85
2024/04/14 16:23:08;;;;;;;1.83;1.30;;;25.40;66.20;;;;;;8612894;27;20074;-85
2024/04/14 16:27:11;;;;;;;1.60;1.20;;;25.20;71.00;;;;;;8572047;27;20018;-85
2024/04/14 16:31:15;;;;;;;1.65;1.30;;;25.20;70.70;;;;;;8579708;27;20035;-85
2024/04/14 16:35:16;;;;;;;1.42;1.20;;;24.90;69.80;;;;;;8571202;27;19996;-84
2024/04/14 16:39:17;;;;;;;1.88;1.10;;;24.60;71.40;;;;;;8610977;27;20015;-84
2024/04/14 16:43:17;;;;;;;1.80;1.35;;;24.30;72.50;;;;;;8608310;27;20015;-85
2024/04/14 16:47:18;;;;;;;1.35;1.10;;;23.90;74.20;;;;;;8578031;27;19999;-85
2024/04/14 16:51:19;;;;;;;1.85;1.38;;;23.50;71.60;;;;;;8565203;27;20016;-85
2024/04/14 16:55:19;;;;;;;0.98;0.85;;;22.90;78.10;;;;;;8597769;27;20007;-86
2024/04/14 16:59:20;;;;;;;2.40;1.20;;;22.50;81.90;;;;;;8601974;27;20018;-85
2024/04/14 17:03:21;;;;;;;1.58;1.20;;;22.40;86.70;;;;;;8579438;27;20007;-86
2024/04/14 17:07:21;;;;;;;1.73;1.10;;;22.10;88.40;;;;;;8589327;27;20011;-85
2024/04/14 17:11:22;;;;;;;1.98;1.25;;;21.80;90.10;;;;;;8597748;27;20016;-86
2024/04/14 17:15:22;;;;;;;3.15;1.40;;;21.60;89.30;;;;;;8604549;27;20776;-85
2024/04/14 17:19:23;;;;;;;1.88;1.05;;;21.30;91.00;;;;;;8589061;27;20701;-85
2024/04/14 17:23:24;;;;;;;2.33;1.58;;;21.00;90.50;;;;;;8604419;27;20008;-84
2024/04/14 17:27:24;;;;;;;1.75;1.33;;;20.60;91.00;;;;;;8578297;27;20008;-84
2024/04/14 17:31:25;;;;;;;1.42;1.20;;;20.50;93.80;;;;;;8590490;27;20491;-86
2024/04/14 17:35:25;;;;;;;1.45;1.00;;;20.20;92.40;;;;;;8575851;27;20018;-86
2024/04/14 17:39:26;;;;;;;1.58;1.02;;;20.10;92.40;;;;;;8575124;27;20377;-86
2024/04/14 17:43:26;;;;;;;2.42;1.60;;;20.30;92.90;;;;;;8600223;27;20004;-86
2024/04/14 17:47:27;;;;;;;1.42;1.30;;;20.00;94.60;;;;;;8615072;27;20348;-87
2024/04/14 17:51:28;;;;;;;1.27;1.17;;;20.00;95.60;;;;;;8607053;27;20018;-85
2024/04/14 17:55:28;;;;;;;1.65;1.20;;;20.00;95.20;;;;;;8612441;27;20008;-86
2024/04/14 17:59:29;;;;;;;1.50;1.13;;;19.50;96.00;;;;;;8602914;27;20153;-85
2024/04/14 18:03:30;;;;;;;1.13;1.02;;;19.50;96.50;;;;;;8584434;27;20012;-84
2024/04/14 18:07:30;;;;;;;2.25;1.48;;;19.20;97.30;;;;;;8574962;27;20023;-85
2024/04/14 18:11:31;;;;;;;1.58;1.45;;;19.00;99.50;;;;;;8570080;27;20778;-85
2024/04/14 18:15:32;;;;;;;2.15;1.10;;;18.20;99.90;;;;;;8573877;27;20084;-85
2024/04/14 18:19:34;;;;;;;1.70;1.30;;;17.90;99.90;;;;;;8567340;27;20000;-86
2024/04/14 18:23:34;;;;;;;1.25;0.98;;;17.70;99.90;;;;;;8584672;27;20009;-86
2024/04/14 18:27:35;;;;;;;3.28;2.38;;;17.50;99.90;;;;;;8589928;27;20015;-86
2024/04/14 18:31:35;;;;;;;1.90;1.67;;;17.30;99.90;;;;;;8606480;27;20011;-86
2024/04/14 18:35:36;;;;;;;1.73;1.48;;;16.90;99.90;;;;;;8588421;27;20074;-85
2024/04/14 18:39:37;;;;;;;3.45;1.70;;;16.70;99.90;;;;;;8607060;27;20055;-85
2024/04/14 18:43:38;;;;;;;2.08;1.50;;;16.50;99.90;;;;;;8578826;27;20373;-85
2024/04/14 18:47:38;;;;;;;2.60;1.55;;;16.50;99.90;;;;;;8582450;27;20005;-84
2024/04/14 18:51:39;;;;;;;4.97;1.88;;;16.30;99.90;;;;;;8597757;27;20349;-85
2024/04/14 18:55:39;;;;;;;2.60;1.33;;;16.20;99.90;;;;;;8583397;27;20000;-85
2024/04/14 18:59:40;;;;;;;1.98;1.38;;;15.90;99.90;;;;;;8618775;27;20416;-85
2024/04/14 19:03:40;;;;;;;1.77;1.40;;;15.70;99.90;;;;;;8604683;27;20055;-85
2024/04/14 19:07:41;;;;;;;2.78;1.63;;;16.10;99.90;;;;;;8572038;27;20619;-85
2024/04/14 19:11:41;;;;;;;1.65;1.35;;;16.00;99.90;;;;;;8602748;27;20003;-85
2024/04/14 19:15:47;;;;;;;3.50;1.55;;;15.60;99.90;;;;;;8566380;27;19999;-86
2024/04/14 19:19:47;;;;;;;2.47;1.70;;;15.20;99.90;;;;;;8568544;27;20438;-85
2024/04/14 19:23:56;;;;;;;2.30;1.75;;;15.00;99.90;;;;;;8581834;27;20083;-86
2024/04/14 19:27:56;;;;;;;2.53;1.90;;;14.70;99.90;;;;;;8600605;27;20014;-85
2024/04/14 19:31:57;;;;;;;3.30;2.20;;;14.70;99.90;;;;;;8571640;27;20022;-84
2024/04/14 19:35:57;;;;;;;2.85;2.28;;;14.70;99.90;;;;;;8578393;27;20095;-84
2024/04/14 19:40:00;;;;;;;3.45;2.40;;;14.60;99.90;;;;;;8617781;27;20017;-84
2024/04/14 19:44:03;;;;;;;4.15;2.35;;;14.40;99.90;;;;;;8591657;27;20461;-84
2024/04/14 19:48:04;;;;;;;2.60;2.13;;;14.40;99.90;;;;;;8574612;27;20083;-85
2024/04/14 19:52:05;;;;;;;4.65;2.05;;;14.30;99.90;;;;;;8590895;27;20081;-85
2024/04/14 19:56:05;;;;;;;2.92;2.22;;;14.00;99.90;;;;;;8607122;27;20004;-85
2024/04/14 20:00:07;;;;;;;3.40;2.08;;;13.80;99.90;;;;;;8559916;27;20015;-85
2024/04/14 20:04:07;;;;;;;3.28;2.30;;;13.70;99.90;;;;;;8590743;27;20008;-85
2024/04/14 20:08:08;;;;;;;4.60;2.65;;;13.70;99.90;;;;;;8580756;27;20057;-85
2024/04/14 20:12:09;;;;;;;5.05;2.10;;;13.70;99.90;;;;;;8600676;27;20000;-86
2024/04/14 20:16:09;;;;;;;2.33;1.80;;;13.70;99.90;;;;;;8563980;27;20484;-85
2024/04/14 20:20:12;;;;;;;3.65;2.08;;;13.60;99.90;;;;;;8574600;27;20080;-86
2024/04/14 20:24:13;;;;;;;2.70;1.83;;;13.40;99.90;;;;;;8605244;27;20000;-86
2024/04/14 20:28:13;;;;;;;2.80;2.08;;;13.20;99.90;;;;;;8594422;27;20015;-85
2024/04/14 20:32:14;;;;;;;6.25;2.30;;;13.30;99.90;;;;;;8605117;27;20005;-85
2024/04/14 20:36:14;;;;;;;3.45;2.30;;;13.10;99.90;;;;;;8614702;27;20076;-85
2024/04/14 20:40:15;;;;;;;3.70;2.17;;;13.00;99.90;;;;;;8609291;27;20007;-85
2024/04/14 20:44:17;;;;;;;2.95;2.20;;;12.80;99.90;;;;;;8612925;27;20003;-85
2024/04/14 20:48:17;;;;;;;2.95;2.20;;;12.80;99.90;;;;;;8575689;27;20044;-85
2024/04/14 20:52:19;;;;;;;3.60;2.15;;;12.80;99.90;;;;;;8571084;27;20767;-85
2024/04/14 20:56:19;;;;;;;6.43;2.45;;;12.80;99.90;;;;;;8606494;27;20339;-85
2024/04/14 21:00:23;;;;;;;6.47;2.55;;;12.60;99.90;;;;;;8584549;27;20040;-85
2024/04/14 21:04:23;;;;;;;3.85;2.20;;;12.50;99.90;;;;;;8608276;27;20144;-85
2024/04/14 21:08:24;;;;;;;3.03;1.90;;;12.40;99.90;;;;;;8583562;27;20004;-85
2024/04/14 21:12:24;;;;;;;3.45;2.05;;;12.20;99.90;;;;;;8571930;27;20454;-84
2024/04/14 21:16:25;;;;;;;4.75;2.08;;;12.10;99.90;;;;;;8605873;27;20052;-85
2024/04/14 21:20:25;;;;;;;3.42;2.10;;;12.10;99.90;;;;;;8576338;27;20353;-85
2024/04/14 21:24:26;;;;;;;3.58;2.17;;;12.00;99.90;;;;;;8605258;27;20003;-85
2024/04/14 21:28:28;;;;;;;6.35;2.38;;;11.70;99.90;;;;;;8613907;27;20007;-84
2024/04/14 21:32:28;;;;;;;3.50;2.35;;;11.70;99.90;;;;;;8606774;27;20008;-84
2024/04/14 21:36:29;;;;;;;5.25;2.42;;;11.90;99.90;;;;;;8600019;27;20344;-85
2024/04/14 21:40:29;;;;;;;4.15;2.78;;;11.80;99.90;;;;;;8608636;27;20043;-85
2024/04/14 21:44:30;;;;;;;5.57;2.40;;;11.90;99.90;;;;;;8613457;22;20373;-85
2024/04/14 21:48:30;;;;;;;3.53;2.45;;;11.80;99.90;;;;;;8578933;27;20016;-85
2024/04/14 21:52:31;;;;;;;3.13;2.30;;;11.70;99.90;;;;;;8580026;27;20018;-84
2024/04/14 21:56:32;;;;;;;3.58;2.10;;;11.50;99.90;;;;;;8554354;27;20022;-85
2024/04/14 22:00:33;;;;;;;3.95;2.58;;;11.30;99.90;;;;;;8567378;27;20493;-84
2024/04/14 22:04:34;;;;;;;4.10;2.47;;;11.20;99.90;;;;;;8555239;27;20004;-84
2024/04/14 22:08:36;;;;;;;2.78;2.20;;;11.40;99.90;;;;;;8593844;27;20087;-85
2024/04/14 22:12:37;;;;;;;4.80;2.90;;;11.30;99.90;;;;;;8574448;27;20346;-84
2024/04/14 22:16:37;;;;;;;3.75;2.47;;;11.30;99.90;;;;;;8589414;27;20007;-84
2024/04/14 22:20:38;;;;;;;3.78;2.28;;;11.20;99.90;;;;;;8595596;27;20028;-84
2024/04/14 22:24:40;;;;;;;3.97;2.33;;;11.10;99.90;;;;;;8592377;27;20010;-84
2024/04/14 22:28:40;;;;;;;4.38;2.67;;;11.00;99.90;;;;;;8568481;27;20039;-84
2024/04/14 22:32:41;;;;;;;4.47;2.60;;;11.00;99.90;;;;;;8547934;27;20019;-84
2024/04/14 22:36:41;;;;;;;5.22;2.47;;;10.80;99.90;;;;;;8584346;27;20007;-84
2024/04/14 22:40:42;;;;;;;5.28;2.50;;;10.70;99.90;;;;;;8597000;27;20357;-84
2024/04/14 22:44:43;;;;;;;2.90;2.00;;;10.50;99.90;;;;;;8601173;27;20055;-85
2024/04/14 22:48:44;;;;;;;3.90;2.53;;;10.40;99.90;;;;;;8564752;27;20361;-85
2024/04/14 22:52:44;;;;;;;4.35;2.67;;;10.20;99.90;;;;;;8583197;27;20019;-84
2024/04/14 22:56:45;;;;;;;5.28;2.60;;;10.10;99.90;;;;;;8583430;27;20389;-84
2024/04/14 23:00:45;;;;;;;4.43;2.67;;;10.20;99.90;;;;;;8543812;27;20019;-84
2024/04/14 23:04:46;;;;;;;4.32;2.75;;;10.10;99.90;;;;;;8588032;27;20004;-84
2024/04/14 23:08:47;;;;;;;2.85;2.17;;;10.10;99.90;;;;;;8582940;27;20022;-84
2024/04/14 23:12:47;;;;;;;3.50;2.45;;;10.00;99.90;;;;;;8589463;27;20004;-85
2024/04/14 23:16:48;;;;;;;4.15;2.67;;;9.90;99.90;;;;;;8606499;27;20353;-84
2024/04/14 23:20:48;;;;;;;3.70;2.08;;;9.80;99.90;;;;;;8580939;27;20060;-84
2024/04/14 23:24:49;;;;;;;4.22;2.63;;;9.70;99.90;;;;;;8573138;27;20008;-85
2024/04/14 23:28:50;;;;;;;4.70;2.83;;;9.60;99.90;;;;;;8574352;27;20353;-84
2024/04/14 23:32:50;;;;;;;3.58;2.47;;;9.50;99.90;;;;;;8586545;27;19999;-84
2024/04/14 23:36:54;;;;;;;4.22;2.63;;;9.40;99.90;;;;;;8558142;27;20007;-85
2024/04/14 23:40:55;;;;;;;3.42;2.30;;;9.30;99.90;;;;;;8602332;27;20019;-84
2024/04/14 23:44:55;;;;;;;5.70;2.65;;;9.20;99.90;;;;;;8550965;27;20020;-84
2024/04/14 23:48:59;;;;;;;4.72;2.35;;;9.20;99.90;;;;;;8580606;27;20075;-84
2024/04/14 23:52:59;;;;;;;4.57;2.83;;;9.10;99.90;;;;;;8605920;27;20048;-84
2024/04/14 23:57:00;;;;;;;3.08;2.40;;;9.10;99.90;;;;;;8578418;27;20012;-85
